Airfield :







YOU CAN JOIN US ON...

 
LOGIN :

Register | Disclaimer

   EN    FR    IT 

 









Legend :    VFR   Marginal VFR   IFR   Intensive IFR   Very Intensive IFR
Visi :
Ceiling :
>= 8 km
>= 3000ft
5 to 8 km
1000 to 3000 ft
1500m to 5 km
500 to 1000 ft
800 to 1500m
200 to 500 ft
< 800m
< 200 ft
Symbols :   Thunderstorms  Fog  Heavy snow  Heavy precipitations  Wind > 20 kt






- Airport Elevation : 550 ft
- IATA code : YOY


CYOY - C J.H.L.(Joe) Lecomte) Heliport

CURRENT METAR :
  • 180200Z AUTO 00000KT 9SM CLR M23/M28 A3043 RMK SLP324

EXPIRED METARs :
  • 180100Z 19005KT 15SM SKC M21/M25 A3043 RMK DA-4462FT LAST STFD OBS/NEXT 181400 UTC SLP322
  • 180000Z 34004KT 280V360 15SM SKC M18/M21 A3041 RMK DA-4033FT SLP316

TAF TAF CYOY
Valid from the 18 at 00:00 until the 18 at 12:00 UTC


172330Z 1800/1812 30005KT P6SM SKC
BECMG 1800/1801 VRB03KT
FM181000 VRB03KT P6SM OVC210 RMK FCST BASED ON AUTO OBS 180100-181200Z. NXT FCST BY 180600Z



MET'MAP, your aeronautical weather chart ! - Copyright ORBIFLY December 2007 - Disclaimer

ORBIFLY MET'MAP TEAM :

Programming & Development : Alexandra Zaïnal
Concept & original design : Baudouin d'Aumeries
Assistance for programming : Marc-Olivier Méhu
Technical & hardware support : Manuel Goepfert

Contact : metmap@orbifly.com




SOURCES & CREDITS :

   NOAA